KLAL/LAL METAR and TAF weather

Enter ICAO airport designator
Station Type Date Time Source
KLAL METAR 2022/01/26 07:55 UTC NOAA

KLAL 260755Z AUTO 08006KT 7SM OVC032 12/12 A2998 RMK AO2


Station Type Date Time Source
KLAL Decoded METAR 2022/01/26 07:55 UTC NOAA

Lakeland Regional, FL, United States (KLAL) 27-59N 082-01W
Jan 26, 2022 - 02:55 AM EST / 2022.01.26 0755 UTC
Wind: from the E (080 degrees) at 7 MPH (6 KT):0
Visibility: 7 mile(s):0
Sky conditions: overcast
Temperature: 53 F (12 C)
Dew Point: 53 F (12 C)
Relative Humidity: 100%
Pressure (altimeter): 29.98 in. Hg (1015 hPa)
ob: KLAL 260755Z AUTO 08006KT 7SM OVC032 12/12 A2998 RMK AO2
cycle: 8

Station Type Date Time Source
KLAL TAF 2022/01/26 06:42 UTC NOAA

TAF KLAL 260539Z 2606/2706 05006KT P6SM VCSH SCT015 OVC040
FM260800 05006KT 6SM BR VCSH SCT007 OVC015
TEMPO 2608/2612 BKN007
FM261200 05006KT 6SM BR OVC007
FM261800 05008KT P6SM OVC007
FM270200 02008KT P6SM SCT007 OVC015
AMD NOT SKED TIL 261100

Example: see airport list